Time;durP1;ratioP1;P1;durP2;ratioP2;P2;SDS_P1;SDS_P2;PMS_P1;PMS_P2;Temp;Humidity;BMP_temperature;BMP_pressure;BME280_temperature;BME280_humidity;BME280_pressure;Samples;Min_cycle;Max_cycle;Signal;HPM_P1;HPM_P2
2021/11/16 00:02:03;;;;;;;73.32;29.33;;;6.30;99.90;;;;;;5052077;28;20528;-77
2021/11/16 00:04:29;;;;;;;71.03;29.42;;;6.40;99.90;;;;;;5051654;28;20481;-77
2021/11/16 00:06:54;;;;;;;71.43;27.85;;;6.40;99.90;;;;;;5052263;28;20025;-76
2021/11/16 00:09:20;;;;;;;65.78;26.63;;;6.30;99.90;;;;;;5052801;28;20032;-76
2021/11/16 00:11:47;;;;;;;66.10;28.35;;;6.40;99.90;;;;;;5051183;28;20029;-75
2021/11/16 00:14:13;;;;;;;61.85;26.98;;;6.30;99.90;;;;;;5052246;28;20025;-77
2021/11/16 00:16:40;;;;;;;64.68;27.75;;;6.30;99.90;;;;;;5052911;28;20025;-76
2021/11/16 00:19:09;;;;;;;70.63;27.38;;;6.20;99.90;;;;;;5051965;28;20013;-76
2021/11/16 00:21:35;;;;;;;69.43;28.55;;;6.40;99.90;;;;;;5052407;28;20488;-76
2021/11/16 00:24:08;;;;;;;66.28;26.25;;;6.30;99.90;;;;;;5052093;28;20124;-74
2021/11/16 00:26:34;;;;;;;68.63;28.75;;;6.30;99.90;;;;;;5055857;28;20061;-75
2021/11/16 00:28:59;;;;;;;75.68;30.70;;;6.30;99.90;;;;;;5056578;28;20032;-76
2021/11/16 00:31:25;;;;;;;72.95;29.55;;;6.30;99.90;;;;;;5056688;28;20079;-77
2021/11/16 00:33:50;;;;;;;64.90;27.35;;;6.30;99.90;;;;;;5055465;28;20033;-75
2021/11/16 00:36:16;;;;;;;66.30;27.45;;;6.30;99.90;;;;;;5056102;28;20033;-75
2021/11/16 00:38:42;;;;;;;70.88;27.88;;;6.30;99.90;;;;;;5055579;28;20021;-76
2021/11/16 00:41:09;;;;;;;70.03;29.75;;;6.30;99.90;;;;;;5056497;28;20109;-76
2021/11/16 00:43:35;;;;;;;67.40;28.02;;;6.30;99.90;;;;;;5056747;28;20028;-76
2021/11/16 00:46:01;;;;;;;68.85;28.30;;;6.30;99.90;;;;;;5055671;28;20397;-77
2021/11/16 00:48:27;;;;;;;73.10;29.80;;;6.30;99.90;;;;;;5056606;28;20081;-77
2021/11/16 00:50:56;;;;;;;69.50;29.88;;;6.30;99.90;;;;;;5057020;28;20469;-76
2021/11/16 00:53:24;;;;;;;63.22;27.05;;;6.30;99.90;;;;;;5041550;28;20016;-77
2021/11/16 00:55:50;;;;;;;73.60;27.98;;;6.40;99.90;;;;;;5058874;28;20044;-77
2021/11/16 00:58:16;;;;;;;61.45;26.00;;;6.40;99.90;;;;;;5055448;28;20025;-77
2021/11/16 01:00:43;;;;;;;58.38;25.77;;;6.40;99.90;;;;;;5055521;28;20032;-76
2021/11/16 01:03:11;;;;;;;59.20;24.85;;;6.40;99.90;;;;;;5055528;28;20025;-76
2021/11/16 01:05:39;;;;;;;63.63;26.35;;;6.40;99.90;;;;;;5055075;28;20088;-77
2021/11/16 01:08:05;;;;;;;55.67;24.27;;;6.40;99.90;;;;;;5054372;28;20021;-77
2021/11/16 01:10:34;;;;;;;59.55;25.83;;;6.40;99.90;;;;;;5056135;28;20021;-77
2021/11/16 01:13:01;;;;;;;62.20;27.45;;;6.40;99.90;;;;;;5049162;28;20465;-76
2021/11/16 01:15:27;;;;;;;58.58;25.67;;;6.40;99.90;;;;;;5054972;28;20064;-76
2021/11/16 01:17:56;;;;;;;68.13;26.17;;;6.40;99.90;;;;;;5055120;28;20469;-75
2021/11/16 01:20:22;;;;;;;59.28;24.75;;;6.40;99.90;;;;;;5054962;28;20021;-75
2021/11/16 01:22:52;;;;;;;58.65;25.52;;;6.40;99.90;;;;;;5055265;28;20099;-76
2021/11/16 01:25:18;;;;;;;66.97;25.23;;;6.40;99.90;;;;;;5055417;28;20056;-77
2021/11/16 01:27:44;;;;;;;59.35;25.15;;;6.40;99.90;;;;;;5061773;28;20033;-76
2021/11/16 01:30:15;;;;;;;56.10;24.48;;;6.40;99.90;;;;;;5053844;28;20017;-76
2021/11/16 01:32:45;;;;;;;62.10;25.48;;;6.40;99.90;;;;;;5055026;28;20037;-77
2021/11/16 01:35:11;;;;;;;64.82;26.20;;;6.40;99.90;;;;;;5053945;28;20130;-74
2021/11/16 01:37:37;;;;;;;58.55;25.33;;;6.40;99.90;;;;;;5054910;28;20029;-75
2021/11/16 01:40:09;;;;;;;55.63;24.58;;;6.40;99.90;;;;;;5054864;28;20025;-76
2021/11/16 01:42:36;;;;;;;59.97;24.65;;;6.40;99.90;;;;;;5053684;28;20044;-77
2021/11/16 01:45:03;;;;;;;61.08;26.35;;;6.40;99.90;;;;;;5055241;28;20504;-77
2021/11/16 01:47:28;;;;;;;60.00;25.15;;;6.40;99.90;;;;;;5054564;28;20025;-75
2021/11/16 01:49:55;;;;;;;64.13;26.83;;;6.40;99.90;;;;;;5054083;28;20021;-76
2021/11/16 01:52:21;;;;;;;59.13;25.25;;;6.40;99.90;;;;;;5054685;28;20033;-75
2021/11/16 01:54:46;;;;;;;69.10;27.92;;;6.40;99.90;;;;;;5054693;28;20392;-75
2021/11/16 01:57:12;;;;;;;57.85;25.75;;;6.40;99.90;;;;;;5053806;28;20104;-76
2021/11/16 01:59:37;;;;;;;66.25;26.30;;;6.40;99.90;;;;;;5054164;28;20033;-77
2021/11/16 02:02:04;;;;;;;53.63;25.15;;;6.40;99.90;;;;;;5053987;28;20036;-76
2021/11/16 02:04:30;;;;;;;53.28;24.73;;;6.40;99.90;;;;;;5053475;28;20057;-77
2021/11/16 02:06:56;;;;;;;65.63;27.98;;;6.40;99.90;;;;;;5054295;28;20094;-77
2021/11/16 02:09:21;;;;;;;65.95;26.27;;;6.40;99.90;;;;;;5054356;28;20025;-77
2021/11/16 02:11:47;;;;;;;59.10;24.15;;;6.50;99.90;;;;;;5053536;28;20036;-77
2021/11/16 02:14:15;;;;;;;58.53;25.05;;;6.50;99.90;;;;;;5054031;28;20051;-76
2021/11/16 02:16:43;;;;;;;57.95;25.15;;;6.50;99.90;;;;;;5054759;28;20021;-76
2021/11/16 02:19:11;;;;;;;57.67;26.00;;;6.50;99.90;;;;;;5053787;28;20025;-76
2021/11/16 02:21:37;;;;;;;62.03;25.48;;;6.40;99.90;;;;;;5054132;28;20029;-77
2021/11/16 02:24:04;;;;;;;56.65;22.98;;;6.40;99.90;;;;;;5054176;28;20048;-75
2021/11/16 02:26:30;;;;;;;58.80;26.13;;;6.40;99.90;;;;;;5054549;28;20036;-75
2021/11/16 02:28:56;;;;;;;63.45;27.73;;;6.40;99.90;;;;;;5054080;28;20025;-76
2021/11/16 02:31:22;;;;;;;67.03;30.10;;;6.40;99.90;;;;;;5053795;28;20033;-75
2021/11/16 02:33:48;;;;;;;60.22;27.10;;;6.40;99.90;;;;;;5054258;28;20028;-76
2021/11/16 02:36:14;;;;;;;69.18;29.30;;;6.30;99.90;;;;;;5053673;28;20032;-76
2021/11/16 02:38:41;;;;;;;66.70;28.52;;;6.30;99.90;;;;;;5053106;28;20112;-76
2021/11/16 02:41:07;;;;;;;58.70;25.52;;;6.30;99.90;;;;;;5053309;28;20501;-76
2021/11/16 02:43:35;;;;;;;61.85;26.88;;;6.30;99.90;;;;;;5053715;28;20381;-76
2021/11/16 02:46:03;;;;;;;64.30;27.70;;;6.40;99.90;;;;;;5052941;28;20033;-76
2021/11/16 02:48:30;;;;;;;65.60;28.75;;;6.30;99.90;;;;;;5052900;28;20453;-74
2021/11/16 02:50:59;;;;;;;65.13;27.95;;;6.30;99.90;;;;;;5053312;28;20027;-77
2021/11/16 02:53:25;;;;;;;61.67;25.20;;;6.30;99.90;;;;;;5053012;28;20029;-76
2021/11/16 02:55:50;;;;;;;63.33;27.63;;;6.30;99.90;;;;;;5053268;28;20032;-76
2021/11/16 02:58:17;;;;;;;59.42;26.65;;;6.30;99.90;;;;;;5053214;28;20025;-76
2021/11/16 03:00:49;;;;;;;61.70;26.05;;;6.30;99.90;;;;;;5052505;28;20021;-77
2021/11/16 03:03:15;;;;;;;60.75;26.15;;;6.30;99.90;;;;;;5052800;28;20380;-76
2021/11/16 03:05:41;;;;;;;60.08;25.63;;;6.30;99.90;;;;;;5052732;28;20548;-76
2021/11/16 03:08:16;;;;;;;68.28;28.52;;;6.20;99.90;;;;;;5052900;28;20100;-78
2021/11/16 03:10:43;;;;;;;67.10;26.08;;;6.20;99.90;;;;;;5054935;28;20053;-76
2021/11/16 03:13:10;;;;;;;64.78;25.10;;;6.20;99.90;;;;;;5056398;28;20029;-77
2021/11/16 03:15:36;;;;;;;62.90;25.15;;;6.20;99.90;;;;;;5057944;28;20052;-76
2021/11/16 03:18:03;;;;;;;60.70;24.15;;;6.20;99.90;;;;;;5053292;28;20028;-76
2021/11/16 03:20:28;;;;;;;60.22;25.83;;;6.20;99.90;;;;;;5052457;28;20029;-76
2021/11/16 03:22:58;;;;;;;73.95;26.88;;;6.10;99.90;;;;;;5052956;28;20033;-76
2021/11/16 03:25:29;;;;;;;67.85;25.95;;;6.10;99.90;;;;;;5055262;28;20033;-77
2021/11/16 03:28:02;;;;;;;68.03;27.35;;;6.10;99.90;;;;;;5053226;28;20077;-76
2021/11/16 03:30:29;;;;;;;66.18;26.92;;;6.10;99.90;;;;;;5057915;28;20082;-76
2021/11/16 03:32:55;;;;;;;62.60;25.67;;;6.20;99.90;;;;;;5052571;28;20032;-76
2021/11/16 03:35:21;;;;;;;63.78;25.33;;;6.20;99.90;;;;;;5051946;28;20170;-76
2021/11/16 03:37:50;;;;;;;62.50;25.33;;;6.20;99.90;;;;;;5052630;28;20528;-76
2021/11/16 03:40:16;;;;;;;67.97;27.25;;;6.20;99.90;;;;;;5053832;28;20032;-76
2021/11/16 03:42:46;;;;;;;55.95;26.23;;;6.20;99.90;;;;;;5052153;28;20094;-76
2021/11/16 03:45:14;;;;;;;61.25;25.13;;;6.20;99.90;;;;;;5052183;28;20489;-76
2021/11/16 03:47:40;;;;;;;58.53;25.42;;;6.20;99.90;;;;;;5052689;28;20037;-77
2021/11/16 03:50:14;;;;;;;55.80;24.38;;;6.20;99.90;;;;;;5051891;28;20031;-77
2021/11/16 03:52:42;;;;;;;61.83;25.70;;;6.20;99.90;;;;;;5054229;28;20059;-76
2021/11/16 03:55:11;;;;;;;59.45;26.27;;;6.20;99.90;;;;;;5052299;28;20025;-77
2021/11/16 03:57:39;;;;;;;60.13;25.08;;;6.20;99.90;;;;;;5051440;28;20381;-76
2021/11/16 04:00:08;;;;;;;55.92;24.35;;;6.20;99.90;;;;;;5051019;28;20027;-76
2021/11/16 04:02:34;;;;;;;53.35;22.85;;;6.30;99.90;;;;;;5051698;28;20058;-77
2021/11/16 04:05:00;;;;;;;60.70;26.13;;;6.20;99.90;;;;;;5052101;28;20049;-76
2021/11/16 04:07:25;;;;;;;59.40;23.63;;;6.20;99.90;;;;;;5052206;28;20112;-77
2021/11/16 04:09:51;;;;;;;56.40;25.45;;;6.10;99.90;;;;;;5051584;28;20037;-75
2021/11/16 04:12:17;;;;;;;58.50;25.48;;;6.10;99.90;;;;;;5051828;28;20061;-76
2021/11/16 04:14:42;;;;;;;60.70;26.30;;;6.10;99.90;;;;;;5052350;28;20053;-77
2021/11/16 04:17:08;;;;;;;60.13;26.58;;;6.10;99.90;;;;;;5050989;28;20025;-76
2021/11/16 04:19:33;;;;;;;70.22;26.67;;;6.10;99.90;;;;;;5051737;28;20017;-76
2021/11/16 04:21:59;;;;;;;72.40;28.85;;;6.10;99.90;;;;;;5051661;28;20112;-76
2021/11/16 04:24:24;;;;;;;69.85;26.75;;;6.10;99.90;;;;;;5051353;28;20036;-75
2021/11/16 04:26:50;;;;;;;68.75;26.73;;;6.10;99.90;;;;;;5051752;28;20036;-76
2021/11/16 04:29:15;;;;;;;70.80;27.60;;;6.10;99.90;;;;;;5051452;28;20013;-76
2021/11/16 04:31:41;;;;;;;66.72;26.50;;;6.10;99.90;;;;;;5051203;28;20021;-76
2021/11/16 04:34:07;;;;;;;56.60;25.13;;;6.10;99.90;;;;;;5051753;28;20112;-76
2021/11/16 04:36:34;;;;;;;59.83;25.73;;;6.10;99.90;;;;;;5052711;28;20381;-76
2021/11/16 04:39:02;;;;;;;55.85;25.33;;;6.00;99.90;;;;;;5051747;28;20032;-77
2021/11/16 04:41:28;;;;;;;68.80;25.88;;;5.90;99.90;;;;;;5052405;28;20476;-76
2021/11/16 04:43:56;;;;;;;75.30;27.45;;;5.90;99.90;;;;;;5051425;28;20416;-75
2021/11/16 04:46:24;;;;;;;65.15;26.83;;;6.00;99.90;;;;;;5051949;28;20037;-77
2021/11/16 04:48:56;;;;;;;71.00;29.80;;;5.90;99.90;;;;;;5052545;28;20032;-75
2021/11/16 04:59:42;;;;;;;60.05;26.23;;;5.90;99.90;;;;;;5050682;28;20460;-74
2021/11/16 05:04:42;;;;;;;67.57;27.08;;;5.90;99.90;;;;;;5052514;28;20067;-76
2021/11/16 05:07:21;;;;;;;66.28;27.80;;;5.90;99.90;;;;;;5051019;28;20555;-76
2021/11/16 05:09:53;;;;;;;70.30;26.65;;;5.90;99.90;;;;;;5051727;28;20025;-76
2021/11/16 05:12:21;;;;;;;69.18;27.63;;;5.80;99.90;;;;;;5055433;28;20025;-77
2021/11/16 05:14:47;;;;;;;67.70;26.77;;;5.90;99.90;;;;;;5055045;28;20025;-76
2021/11/16 05:17:13;;;;;;;78.03;28.33;;;6.00;99.90;;;;;;5059245;28;20033;-76
2021/11/16 05:19:40;;;;;;;66.57;25.98;;;5.90;99.90;;;;;;5055794;28;20415;-77
2021/11/16 05:22:05;;;;;;;67.07;27.92;;;5.90;99.90;;;;;;5054430;28;20029;-76
2021/11/16 05:24:32;;;;;;;67.75;27.02;;;5.90;99.90;;;;;;5055662;28;20043;-76
2021/11/16 05:26:58;;;;;;;68.32;27.45;;;5.80;99.90;;;;;;5056477;28;20135;-76
2021/11/16 05:29:24;;;;;;;67.22;27.40;;;5.80;99.90;;;;;;5056015;28;20074;-76
2021/11/16 05:31:49;;;;;;;67.05;27.27;;;5.90;99.90;;;;;;5057573;28;20028;-76
2021/11/16 05:34:15;;;;;;;63.75;26.92;;;5.90;99.90;;;;;;5055642;28;20104;-76
2021/11/16 05:36:41;;;;;;;67.93;27.17;;;5.80;99.90;;;;;;5055101;28;20028;-76
2021/11/16 05:39:07;;;;;;;65.40;27.38;;;5.90;99.90;;;;;;5055614;28;20063;-75
2021/11/16 05:41:33;;;;;;;65.38;28.08;;;5.90;99.90;;;;;;5056772;28;20063;-77
2021/11/16 05:43:59;;;;;;;72.10;28.77;;;5.90;99.90;;;;;;5054867;28;20095;-77
2021/11/16 05:46:25;;;;;;;65.75;26.58;;;5.80;99.90;;;;;;5054884;28;20055;-76
2021/11/16 05:48:53;;;;;;;67.15;27.08;;;5.80;99.90;;;;;;5053857;28;20040;-75
2021/11/16 05:51:20;;;;;;;75.25;29.83;;;5.80;99.90;;;;;;5054472;28;20025;-76
2021/11/16 05:53:52;;;;;;;81.80;28.55;;;5.70;99.90;;;;;;5054919;28;20021;-76
2021/11/16 05:56:25;;;;;;;68.00;29.05;;;5.80;99.90;;;;;;5053834;28;20025;-74
2021/11/16 05:58:53;;;;;;;71.85;27.50;;;5.80;99.90;;;;;;5054837;28;20037;-77
2021/11/16 06:01:23;;;;;;;75.53;28.55;;;5.80;99.90;;;;;;5054497;28;20075;-76
2021/11/16 06:03:52;;;;;;;76.60;28.33;;;5.70;99.90;;;;;;5053610;28;20484;-75
2021/11/16 06:06:27;;;;;;;65.10;27.50;;;5.80;99.90;;;;;;5054943;28;20552;-75
2021/11/16 06:08:54;;;;;;;74.05;27.45;;;5.80;99.90;;;;;;5055302;28;20033;-77
2021/11/16 06:11:22;;;;;;;78.20;30.52;;;5.80;99.90;;;;;;5054508;28;20469;-76
2021/11/16 06:13:50;;;;;;;78.50;29.60;;;5.70;99.90;;;;;;5053751;28;20385;-77
2021/11/16 06:16:17;;;;;;;66.95;28.13;;;5.70;99.90;;;;;;5038718;28;20032;-76
2021/11/16 06:18:49;;;;;;;71.28;26.38;;;5.70;99.90;;;;;;5041075;28;20100;-75
2021/11/16 06:21:14;;;;;;;75.22;27.95;;;6.20;99.90;;;;;;5038505;28;20020;-77
2021/11/16 06:23:40;;;;;;;72.50;27.83;;;5.70;99.90;;;;;;5038785;28;20021;-75
2021/11/16 06:26:05;;;;;;;66.30;25.85;;;5.70;99.90;;;;;;5034165;28;20025;-77
2021/11/16 06:28:31;;;;;;;63.88;26.23;;;5.70;99.90;;;;;;5037022;28;20021;-75
2021/11/16 06:30:58;;;;;;;64.80;25.80;;;5.70;99.90;;;;;;5039080;28;20045;-76
2021/11/16 06:33:24;;;;;;;71.82;27.30;;;5.70;99.90;;;;;;5038263;28;20048;-77
2021/11/16 06:35:50;;;;;;;73.90;27.20;;;5.80;99.90;;;;;;5038011;28;20033;-76
2021/11/16 06:38:17;;;;;;;67.75;24.83;;;5.80;99.90;;;;;;5034611;28;20013;-76
2021/11/16 06:40:47;;;;;;;66.68;26.95;;;5.70;99.90;;;;;;5035505;28;20021;-76
2021/11/16 06:43:39;;;;;;;76.45;28.27;;;5.80;99.90;;;;;;5036589;28;20028;-77
2021/11/16 06:46:06;;;;;;;74.90;30.00;;;5.80;99.90;;;;;;5036883;28;20037;-75
2021/11/16 06:48:31;;;;;;;64.93;27.35;;;5.80;99.90;;;;;;5046207;28;20033;-75
2021/11/16 06:50:58;;;;;;;77.10;27.98;;;5.70;99.90;;;;;;5053864;28;20483;-77
2021/11/16 06:53:30;;;;;;;69.40;27.27;;;5.70;99.90;;;;;;5051601;28;20100;-77
2021/11/16 06:55:57;;;;;;;63.38;25.13;;;5.70;99.90;;;;;;5051753;28;20471;-77
2021/11/16 06:58:24;;;;;;;73.68;27.08;;;5.70;99.90;;;;;;5051409;28;20090;-76
2021/11/16 07:00:51;;;;;;;68.13;26.83;;;5.70;99.90;;;;;;5048961;28;20036;-76
2021/11/16 07:03:18;;;;;;;69.65;27.70;;;5.70;99.90;;;;;;5044967;28;20029;-77
2021/11/16 07:05:53;;;;;;;74.65;27.50;;;5.70;99.90;;;;;;5051979;28;20056;-76
2021/11/16 07:08:41;;;;;;;74.63;29.05;;;5.70;99.90;;;;;;5052907;28;20029;-76
2021/11/16 07:11:19;;;;;;;68.32;27.85;;;5.70;99.90;;;;;;5052744;28;20100;-77
2021/11/16 07:14:03;;;;;;;77.55;29.27;;;5.70;99.90;;;;;;5051952;28;20103;-78
2021/11/16 07:16:38;;;;;;;71.93;27.05;;;5.70;99.90;;;;;;5052837;28;20473;-77
2021/11/16 07:19:08;;;;;;;72.72;26.95;;;5.70;99.90;;;;;;5056240;28;20063;-77
2021/11/16 07:21:53;;;;;;;80.97;29.92;;;5.70;99.90;;;;;;5048846;28;20022;-77
2021/11/16 07:24:24;;;;;;;69.70;28.20;;;5.70;99.90;;;;;;5035087;28;20397;-77
2021/11/16 07:27:00;;;;;;;72.90;27.05;;;5.70;99.90;;;;;;5049205;28;20072;-76
2021/11/16 07:29:39;;;;;;;71.72;26.00;;;5.80;99.90;;;;;;5056558;28;20448;-77
2021/11/16 07:32:06;;;;;;;79.70;29.20;;;5.60;99.90;;;;;;5053253;28;20017;-77
2021/11/16 07:34:33;;;;;;;67.57;27.45;;;5.60;99.90;;;;;;5057611;28;20075;-77
2021/11/16 07:37:07;;;;;;;72.40;26.33;;;5.70;99.90;;;;;;5054902;28;20037;-77
2021/11/16 07:39:43;;;;;;;74.75;28.33;;;5.70;99.90;;;;;;5060069;28;20021;-79
2021/11/16 07:42:09;;;;;;;69.00;26.08;;;5.70;99.90;;;;;;5051578;28;20076;-79
2021/11/16 07:44:36;;;;;;;74.75;28.63;;;5.80;99.90;;;;;;5052831;28;20036;-78
2021/11/16 07:47:05;;;;;;;69.10;27.00;;;5.80;99.90;;;;;;5048357;28;20678;-78
2021/11/16 07:49:31;;;;;;;78.28;27.48;;;5.80;99.90;;;;;;5050314;28;20017;-78
2021/11/16 07:51:57;;;;;;;74.82;28.27;;;5.70;99.90;;;;;;5051360;28;20033;-77
2021/11/16 07:54:28;;;;;;;74.63;27.52;;;5.80;99.90;;;;;;5052064;28;20017;-78
2021/11/16 07:57:02;;;;;;;73.22;26.90;;;5.70;99.90;;;;;;5038510;28;20077;-77
2021/11/16 07:59:33;;;;;;;76.55;27.65;;;5.70;99.90;;;;;;5042336;28;20047;-78
2021/11/16 08:09:48;;;;;;;75.47;29.75;;;5.60;99.90;;;;;;5035878;28;20362;-77
2021/11/16 08:12:31;;;;;;;69.38;26.63;;;5.60;99.90;;;;;;5044978;28;20123;-77
2021/11/16 08:15:07;;;;;;;72.38;27.30;;;5.60;99.90;;;;;;5046886;28;20393;-79
2021/11/16 08:17:33;;;;;;;73.95;28.55;;;5.60;99.90;;;;;;5051523;28;20032;-77
2021/11/16 08:20:06;;;;;;;71.20;27.85;;;5.70;99.90;;;;;;5051696;28;20414;-78
2021/11/16 08:22:32;;;;;;;71.50;28.88;;;6.20;99.90;;;;;;5052818;28;20025;-79
2021/11/16 08:24:58;;;;;;;71.10;28.85;;;5.80;99.90;;;;;;5052408;28;20488;-79
2021/11/16 08:27:29;;;;;;;78.75;30.27;;;5.80;99.90;;;;;;5053110;28;20381;-80
2021/11/16 08:30:10;;;;;;;68.45;27.48;;;5.90;99.90;;;;;;5052632;28;20044;-79
2021/11/16 08:32:42;;;;;;;71.28;26.65;;;5.90;99.90;;;;;;5053938;28;20033;-79
2021/11/16 08:35:13;;;;;;;71.82;27.65;;;5.90;99.90;;;;;;5052637;28;20025;-77
2021/11/16 08:37:41;;;;;;;72.55;28.02;;;5.90;99.90;;;;;;5051817;28;20029;-78
2021/11/16 08:40:15;;;;;;;76.40;29.02;;;6.00;99.90;;;;;;5039235;28;20045;-78
2021/11/16 08:42:43;;;;;;;68.90;27.58;;;6.00;99.90;;;;;;5051348;28;20032;-78
2021/11/16 08:45:17;;;;;;;78.07;29.40;;;6.00;99.90;;;;;;5050347;28;20481;-78
2021/11/16 08:47:49;;;;;;;66.13;28.52;;;6.00;99.90;;;;;;5042906;28;20112;-79
2021/11/16 08:50:27;;;;;;;70.22;26.50;;;6.00;99.90;;;;;;5055373;28;20112;-79
2021/11/16 08:52:53;;;;;;;66.53;26.23;;;6.70;99.90;;;;;;5055208;28;20373;-79
2021/11/16 08:55:20;;;;;;;65.75;27.25;;;5.90;99.90;;;;;;5055777;28;20033;-77
2021/11/16 08:57:49;;;;;;;75.03;27.55;;;5.90;99.90;;;;;;5054032;28;20599;-78
2021/11/16 09:00:24;;;;;;;65.00;25.58;;;5.90;99.90;;;;;;5052688;28;20171;-82
2021/11/16 09:02:59;;;;;;;61.58;26.70;;;5.90;99.90;;;;;;5055573;28;20029;-80
2021/11/16 09:05:29;;;;;;;74.30;26.83;;;5.90;99.90;;;;;;5055404;28;20139;-77
2021/11/16 09:07:57;;;;;;;68.22;27.00;;;5.90;99.90;;;;;;5053036;28;20018;-79
2021/11/16 09:10:37;;;;;;;74.57;29.00;;;6.00;99.90;;;;;;5050012;28;20040;-78
2021/11/16 09:13:05;;;;;;;71.90;27.95;;;6.00;99.90;;;;;;5047447;28;20406;-74
2021/11/16 09:15:50;;;;;;;67.63;26.90;;;6.00;99.90;;;;;;5054721;28;20366;-75
2021/11/16 09:18:36;;;;;;;69.28;26.60;;;6.00;99.90;;;;;;5053609;28;20035;-77
2021/11/16 09:21:16;;;;;;;67.88;25.98;;;6.10;99.90;;;;;;5051065;28;20128;-82
2021/11/16 09:23:51;;;;;;;64.55;25.73;;;6.10;99.90;;;;;;5054208;28;20465;-78
2021/11/16 09:29:01;;;;;;;61.08;26.83;;;6.50;99.90;;;;;;5054861;28;20060;-79
2021/11/16 09:31:46;;;;;;;77.93;29.60;;;6.20;99.90;;;;;;5061184;28;20522;-79
2021/11/16 09:34:16;;;;;;;72.00;25.50;;;6.20;99.90;;;;;;5052313;28;20029;-80
2021/11/16 09:36:45;;;;;;;67.07;24.48;;;6.20;99.90;;;;;;5060879;28;20033;-81
2021/11/16 09:39:16;;;;;;;69.78;25.23;;;6.20;99.90;;;;;;5054793;28;20031;-80
2021/11/16 09:41:48;;;;;;;67.72;26.63;;;6.30;99.90;;;;;;5053949;28;20544;-80
2021/11/16 09:44:33;;;;;;;64.15;24.88;;;7.30;99.90;;;;;;5052710;28;20060;-80
2021/11/16 09:47:16;;;;;;;78.53;27.92;;;6.30;99.90;;;;;;5055457;28;20039;-79
2021/11/16 09:50:00;;;;;;;67.82;25.98;;;6.30;99.90;;;;;;5056034;28;20040;-80
2021/11/16 09:52:43;;;;;;;63.78;25.85;;;6.30;99.90;;;;;;5049941;28;20052;-80
2021/11/16 09:55:17;;;;;;;65.28;24.38;;;6.40;99.90;;;;;;5063586;28;20053;-82
2021/11/16 09:57:47;;;;;;;58.90;23.98;;;6.40;99.90;;;;;;5059059;28;20032;-81
2021/11/16 10:00:20;;;;;;;55.05;23.92;;;6.40;99.90;;;;;;5050072;28;20032;-81
2021/11/16 10:02:59;;;;;;;62.60;24.75;;;6.40;99.90;;;;;;5050142;28;20456;-80
2021/11/16 10:05:26;;;;;;;58.67;24.88;;;6.40;99.90;;;;;;5054856;28;20056;-81
2021/11/16 10:07:59;;;;;;;64.10;25.25;;;6.40;99.90;;;;;;5060092;28;20115;-80
2021/11/16 10:10:31;;;;;;;59.13;24.92;;;6.40;99.90;;;;;;5047572;28;20037;-79
2021/11/16 10:12:59;;;;;;;57.85;22.90;;;7.00;99.90;;;;;;5045608;28;20028;-79
2021/11/16 10:15:28;;;;;;;62.95;24.40;;;6.40;99.90;;;;;;5055776;28;20031;-80
2021/11/16 10:17:53;;;;;;;64.90;26.25;;;6.40;99.90;;;;;;5053456;28;20025;-81
2021/11/16 10:20:32;;;;;;;68.25;24.02;;;6.40;99.90;;;;;;5054212;28;20058;-81
2021/11/16 10:23:01;;;;;;;57.42;23.67;;;6.40;99.90;;;;;;5054443;28;20021;-80
2021/11/16 10:25:32;;;;;;;56.85;24.33;;;6.40;99.90;;;;;;5063873;28;20041;-81
2021/11/16 10:28:04;;;;;;;65.10;23.73;;;6.40;99.90;;;;;;5048753;28;20032;-80
2021/11/16 10:30:31;;;;;;;70.88;26.20;;;6.40;99.90;;;;;;5049980;28;20025;-81
2021/11/16 10:33:16;;;;;;;65.97;24.02;;;6.30;99.90;;;;;;5055779;28;20020;-82
2021/11/16 10:35:48;;;;;;;69.10;27.20;;;6.30;99.90;;;;;;5055437;28;20526;-81
2021/11/16 10:38:16;;;;;;;65.07;24.70;;;6.20;99.90;;;;;;5054925;28;20017;-80
2021/11/16 10:40:42;;;;;;;60.80;24.60;;;6.20;99.90;;;;;;5051702;28;20048;-81
2021/11/16 10:43:10;;;;;;;68.47;25.25;;;6.20;99.90;;;;;;5068978;28;20009;-80
2021/11/16 10:45:44;;;;;;;65.63;24.70;;;6.20;99.90;;;;;;5053270;28;20125;-80
2021/11/16 10:48:13;;;;;;;65.60;27.27;;;6.10;99.90;;;;;;5059177;28;20052;-81
2021/11/16 10:50:42;;;;;;;80.05;26.38;;;6.10;99.90;;;;;;5058454;28;20044;-82
2021/11/16 10:53:20;;;;;;;70.25;26.42;;;6.20;99.90;;;;;;5055082;28;20449;-81
2021/11/16 10:55:49;;;;;;;70.30;27.83;;;6.10;99.90;;;;;;5056106;28;20032;-81
2021/11/16 10:58:27;;;;;;;63.35;25.70;;;6.10;99.90;;;;;;5056029;28;20464;-80
2021/11/16 11:01:03;;;;;;;67.47;25.40;;;6.10;99.90;;;;;;5058837;28;20031;-81
2021/11/16 11:03:42;;;;;;;65.50;25.15;;;6.20;99.90;;;;;;5058187;28;20096;-81
2021/11/16 11:06:31;;;;;;;73.97;25.67;;;6.20;99.90;;;;;;5055425;28;20109;-81
2021/11/16 11:08:59;;;;;;;64.40;26.42;;;6.30;99.90;;;;;;5053538;28;20120;-80
2021/11/16 11:11:33;;;;;;;69.32;25.10;;;6.30;99.90;;;;;;5057478;28;20501;-81
2021/11/16 11:14:09;;;;;;;68.28;26.33;;;6.30;99.90;;;;;;5059371;28;20029;-80
2021/11/16 11:16:48;;;;;;;71.32;25.85;;;6.20;99.90;;;;;;5058797;28;20078;-82
2021/11/16 11:19:19;;;;;;;75.18;26.98;;;6.20;99.90;;;;;;5061989;28;20063;-80
2021/11/16 11:21:58;;;;;;;61.28;23.38;;;6.20;99.90;;;;;;5070207;28;20176;-81
2021/11/16 11:24:37;;;;;;;70.00;26.23;;;6.20;99.90;;;;;;5067198;28;20033;-80
2021/11/16 11:30:01;;;;;;;69.85;25.85;;;6.20;99.90;;;;;;5059858;28;20115;-81
2021/11/16 11:32:34;;;;;;;56.83;22.95;;;6.30;99.90;;;;;;5057439;28;20039;-81
2021/11/16 11:35:11;;;;;;;63.85;24.23;;;6.30;99.90;;;;;;5058515;28;20024;-79
2021/11/16 11:37:52;;;;;;;62.47;23.92;;;7.10;99.90;;;;;;5058893;28;20017;-81
2021/11/16 11:40:22;;;;;;;58.55;21.83;;;6.40;99.90;;;;;;5054782;28;20017;-80
2021/11/16 11:42:57;;;;;;;56.33;21.73;;;6.40;99.90;;;;;;5060246;28;20051;-81
2021/11/16 11:45:29;;;;;;;58.78;24.02;;;6.40;99.90;;;;;;5059498;28;20028;-80
2021/11/16 11:48:00;;;;;;;63.10;24.20;;;6.40;99.90;;;;;;5057345;28;20028;-80
2021/11/16 11:50:39;;;;;;;55.22;22.65;;;6.40;99.90;;;;;;5059330;28;20117;-80
2021/11/16 11:53:14;;;;;;;59.08;24.48;;;6.50;99.90;;;;;;5055289;28;20017;-81
2021/11/16 11:55:44;;;;;;;58.35;23.23;;;7.00;99.90;;;;;;5045284;28;20104;-79
2021/11/16 11:58:11;;;;;;;65.95;22.98;;;6.50;99.90;;;;;;5050872;28;20074;-81
2021/11/16 12:00:38;;;;;;;63.90;24.90;;;8.00;99.90;;;;;;5055364;28;20025;-80
2021/11/16 12:03:07;;;;;;;68.05;25.17;;;6.50;99.90;;;;;;5059791;28;20036;-81
2021/11/16 12:05:35;;;;;;;61.70;23.40;;;6.50;99.90;;;;;;5060111;28;20048;-80
2021/11/16 12:08:02;;;;;;;69.70;23.88;;;6.50;99.90;;;;;;5065463;28;20086;-81
2021/11/16 12:10:28;;;;;;;55.30;23.52;;;6.60;99.90;;;;;;5061783;28;20025;-81
2021/11/16 12:12:55;;;;;;;57.20;22.65;;;6.60;99.90;;;;;;5058046;28;20017;-79
2021/11/16 12:15:54;;;;;;;60.78;24.65;;;7.30;99.90;;;;;;5059398;28;20026;-80
2021/11/16 12:18:36;;;;;;;61.40;23.92;;;6.60;99.90;;;;;;5052094;28;20495;-80
2021/11/16 12:21:22;;;;;;;63.17;24.80;;;7.10;99.90;;;;;;5049126;28;20019;-79
2021/11/16 12:23:55;;;;;;;61.30;26.85;;;6.60;99.90;;;;;;5046365;28;20021;-80
2021/11/16 12:26:21;;;;;;;60.10;24.00;;;7.20;99.90;;;;;;5039010;28;20128;-79
2021/11/16 12:28:47;;;;;;;62.67;23.77;;;6.60;99.90;;;;;;5052536;28;20108;-80
2021/11/16 12:31:30;;;;;;;63.70;25.52;;;6.60;99.90;;;;;;5057680;28;20090;-80
2021/11/16 12:34:02;;;;;;;75.72;28.48;;;6.70;99.90;;;;;;5052897;28;20028;-81
2021/11/16 12:36:31;;;;;;;69.38;26.27;;;6.30;99.90;;;;;;5051962;28;20472;-78
2021/11/16 12:39:17;;;;;;;68.38;26.00;;;6.60;99.90;;;;;;5051756;28;20614;-80
2021/11/16 12:42:07;;;;;;;64.55;24.58;;;8.00;99.90;;;;;;5052585;28;20489;-80
2021/11/16 12:44:32;;;;;;;67.38;24.67;;;6.60;99.90;;;;;;5046844;28;20044;-80
2021/11/16 12:47:05;;;;;;;64.07;25.33;;;6.60;99.90;;;;;;5054722;28;20033;-80
2021/11/16 12:49:37;;;;;;;63.45;23.70;;;6.70;99.90;;;;;;5054557;28;20063;-80
2021/11/16 12:52:22;;;;;;;70.03;26.27;;;6.70;99.90;;;;;;5049109;28;20156;-78
2021/11/16 12:54:49;;;;;;;68.18;25.55;;;6.80;99.90;;;;;;5053318;28;20021;-80
2021/11/16 12:57:29;;;;;;;64.32;25.13;;;6.80;99.90;;;;;;5051665;28;20017;-79
2021/11/16 12:59:56;;;;;;;57.92;24.70;;;6.80;99.90;;;;;;5050011;28;20108;-79
2021/11/16 13:02:26;;;;;;;68.18;25.70;;;6.90;99.90;;;;;;5051073;28;20025;-79
2021/11/16 13:04:58;;;;;;;62.03;24.20;;;6.90;99.90;;;;;;5050813;28;20045;-79
2021/11/16 13:07:32;;;;;;;63.38;24.85;;;7.30;99.90;;;;;;5051807;28;20047;-81
2021/11/16 13:10:01;;;;;;;60.60;23.80;;;6.90;99.90;;;;;;5055456;28;20111;-80
2021/11/16 13:12:41;;;;;;;62.97;24.90;;;6.90;99.90;;;;;;5061399;28;20085;-82
2021/11/16 13:15:27;;;;;;;59.58;24.45;;;6.90;99.90;;;;;;5064628;28;20021;-81